createdAt,value
2022-09-16T00:00:44.979Z,87.97
2022-09-16T00:03:33.121Z,87.67
2022-09-16T00:06:20.404Z,87.30
2022-09-16T00:09:08.502Z,87.54
2022-09-16T00:11:55.646Z,87.67
2022-09-16T00:14:42.804Z,87.85
2022-09-16T00:17:29.817Z,87.86
2022-09-16T00:20:17.372Z,87.75
2022-09-16T00:23:04.457Z,87.83
2022-09-16T00:25:52.912Z,88.08
2022-09-16T00:28:41.398Z,87.72
2022-09-16T00:31:28.341Z,87.23
2022-09-16T00:34:15.601Z,87.82
2022-09-16T00:37:02.424Z,87.80
2022-09-16T00:39:50.514Z,88.02
2022-09-16T00:42:38.801Z,87.37
2022-09-16T00:45:35.646Z,87.64
2022-09-16T00:48:27.100Z,87.65
2022-09-16T00:51:23.511Z,87.84
2022-09-16T00:54:15.487Z,87.66
2022-09-16T00:57:05.160Z,87.77
2022-09-16T00:59:55.546Z,87.98
2022-09-16T01:02:44.224Z,87.93
2022-09-16T01:05:37.307Z,87.32
2022-09-16T01:08:25.353Z,87.96
2022-09-16T01:11:12.704Z,87.86
2022-09-16T01:14:00.943Z,87.63
2022-09-16T01:16:58.389Z,87.54
2022-09-16T01:20:16.801Z,87.32
2022-09-16T01:23:22.052Z,87.64
2022-09-16T01:26:36.216Z,87.65
2022-09-16T01:29:53.930Z,87.90
2022-09-16T01:32:49.246Z,87.17
2022-09-16T01:36:09.587Z,87.69
2022-09-16T01:39:25.798Z,87.80
2022-09-16T01:42:37.996Z,87.60
2022-09-16T01:45:46.984Z,87.68
2022-09-16T01:48:55.587Z,88.04
2022-09-16T01:51:48.281Z,87.62
2022-09-16T01:54:53.931Z,87.54
2022-09-16T01:57:49.708Z,88.06
2022-09-16T02:00:37.169Z,88.23
2022-09-16T02:03:29.260Z,87.67
2022-09-16T02:06:22.152Z,87.80
2022-09-16T02:09:24.987Z,87.83
2022-09-16T02:12:17.651Z,87.70
2022-09-16T02:15:08.075Z,88.12
2022-09-16T02:18:01.036Z,87.92
2022-09-16T02:20:52.092Z,87.90
2022-09-16T02:23:43.471Z,88.31
2022-09-16T02:26:34.578Z,88.09
2022-09-16T02:29:23.584Z,87.88
2022-09-16T02:32:15.387Z,88.31
2022-09-16T02:35:09.255Z,87.52
2022-09-16T02:38:10.579Z,87.66
2022-09-16T02:41:04.648Z,88.04
2022-09-16T02:43:52.372Z,87.90
2022-09-16T02:46:44.271Z,88.14
2022-09-16T02:49:32.671Z,87.66
2022-09-16T02:52:23.556Z,87.43
2022-09-16T02:55:17.911Z,87.56
2022-09-16T02:58:04.935Z,88.13
2022-09-16T03:00:56.591Z,87.97
2022-09-16T03:03:43.788Z,87.82
2022-09-16T03:06:40.057Z,88.55
2022-09-16T03:09:30.793Z,87.81
2022-09-16T03:12:29.770Z,88.51
2022-09-16T03:15:29.695Z,88.31
2022-09-16T03:18:42.529Z,88.18
2022-09-16T03:21:41.605Z,88.66
2022-09-16T03:24:56.465Z,88.76
2022-09-16T03:28:10.691Z,87.92
2022-09-16T03:31:24.539Z,88.55
2022-09-16T03:34:17.928Z,88.28
2022-09-16T03:37:10.748Z,88.53
2022-09-16T03:39:58.408Z,88.46
2022-09-16T03:42:45.742Z,88.62
2022-09-16T03:45:36.759Z,88.18
2022-09-16T03:48:23.777Z,87.89
2022-09-16T03:51:10.880Z,88.49
2022-09-16T03:53:57.812Z,88.75
2022-09-16T03:56:44.996Z,88.80
2022-09-16T03:59:31.785Z,88.81
2022-09-16T04:02:18.986Z,88.61
2022-09-16T04:05:06.077Z,88.30
2022-09-16T04:07:53.467Z,88.52
2022-09-16T04:10:40.335Z,88.62
2022-09-16T04:13:27.360Z,88.42
2022-09-16T04:16:14.245Z,88.49
2022-09-16T04:19:01.573Z,87.99
2022-09-16T04:21:48.628Z,88.59
2022-09-16T04:24:35.682Z,88.96
2022-09-16T04:27:22.508Z,88.62
2022-09-16T04:30:09.631Z,88.55
2022-09-16T04:32:56.633Z,88.74
2022-09-16T04:35:44.281Z,88.43
2022-09-16T04:38:31.085Z,88.37
2022-09-16T04:41:23.236Z,88.62
2022-09-16T04:44:16.038Z,88.53
2022-09-16T04:47:03.159Z,88.55
2022-09-16T04:49:50.047Z,88.48
2022-09-16T04:52:36.947Z,88.95
2022-09-16T04:55:24.166Z,89.16
2022-09-16T04:58:11.697Z,89.16
2022-09-16T05:00:58.508Z,88.94
2022-09-16T05:03:45.764Z,88.94
2022-09-16T05:06:35.748Z,88.63
2022-09-16T05:09:23.327Z,88.98
2022-09-16T05:12:10.161Z,88.54
2022-09-16T05:14:57.279Z,88.86
2022-09-16T05:17:51.378Z,89.15
2022-09-16T05:20:39.136Z,88.55
2022-09-16T05:23:25.921Z,88.61
2022-09-16T05:26:13.577Z,88.88
2022-09-16T05:29:00.943Z,89.48
2022-09-16T05:31:50.209Z,88.67
2022-09-16T05:34:40.157Z,88.65
2022-09-16T05:37:27.292Z,88.95
2022-09-16T05:40:14.167Z,89.36
2022-09-16T05:43:01.273Z,89.17
2022-09-16T05:45:48.188Z,89.10
2022-09-16T05:48:35.073Z,88.89
2022-09-16T05:51:26.768Z,88.77
2022-09-16T05:54:14.937Z,89.55
2022-09-16T05:57:06.590Z,88.96
2022-09-16T05:59:54.160Z,89.09
2022-09-16T06:02:41.103Z,89.55
2022-09-16T06:05:28.381Z,89.08
2022-09-16T06:08:17.084Z,89.39
2022-09-16T06:11:04.127Z,88.92
2022-09-16T06:13:51.396Z,89.35
2022-09-16T06:16:38.389Z,88.62
2022-09-16T06:19:34.388Z,89.14
2022-09-16T06:22:21.398Z,88.90
2022-09-16T06:25:08.304Z,89.09
2022-09-16T06:27:55.264Z,89.25
2022-09-16T06:30:42.110Z,89.20
2022-09-16T06:33:29.124Z,88.76
2022-09-16T06:36:16.013Z,88.66
2022-09-16T06:39:02.979Z,88.91
2022-09-16T06:41:52.116Z,89.22
2022-09-16T06:44:43.368Z,88.96
2022-09-16T06:47:30.147Z,89.40
2022-09-16T06:50:17.129Z,88.89
2022-09-16T06:53:04.038Z,89.26
2022-09-16T06:55:51.064Z,88.39
2022-09-16T06:58:37.860Z,88.81
2022-09-16T07:01:29.221Z,88.39
2022-09-16T07:04:17.312Z,88.40
2022-09-16T07:07:11.206Z,88.55
2022-09-16T07:09:58.356Z,88.51
2022-09-16T07:12:45.297Z,89.17
2022-09-16T07:15:32.127Z,89.04
2022-09-16T07:18:19.360Z,89.51
2022-09-16T07:21:06.759Z,89.36
2022-09-16T07:23:55.747Z,89.68
2022-09-16T07:26:45.203Z,89.54
2022-09-16T07:29:34.460Z,89.84
2022-09-16T07:32:21.775Z,89.81
2022-09-16T07:35:08.638Z,89.68
2022-09-16T07:37:55.625Z,89.67
2022-09-16T07:40:25.421Z,89.18
2022-09-16T07:43:15.223Z,89.19
2022-09-16T07:46:02.193Z,88.62
2022-09-16T07:48:52.170Z,89.13
2022-09-16T07:51:41.897Z,88.93
2022-09-16T07:54:31.945Z,88.93
2022-09-16T07:57:18.921Z,88.93
2022-09-16T08:00:05.951Z,88.48
2022-09-16T08:02:38.545Z,89.06
2022-09-16T08:05:25.887Z,89.33
2022-09-16T08:08:12.906Z,88.75
2022-09-16T08:11:00.019Z,89.44
2022-09-16T08:13:48.441Z,89.12
2022-09-16T08:16:38.295Z,88.82
2022-09-16T08:19:25.296Z,89.12
2022-09-16T08:22:12.294Z,89.06
2022-09-16T08:24:59.999Z,89.32
2022-09-16T08:27:46.856Z,88.88
2022-09-16T08:30:34.726Z,89.04
2022-09-16T08:33:21.584Z,89.12
2022-09-16T08:36:28.172Z,88.85
2022-09-16T08:39:16.312Z,89.01
2022-09-16T08:42:27.996Z,89.30
2022-09-16T08:45:27.219Z,89.47
2022-09-16T08:48:28.608Z,89.18
2022-09-16T08:51:18.847Z,89.18
2022-09-16T08:54:08.747Z,88.67
2022-09-16T08:56:58.421Z,88.37
2022-09-16T08:59:48.879Z,88.41
2022-09-16T09:03:11.180Z,88.45
2022-09-16T09:05:52.561Z,88.26
2022-09-16T09:08:22.085Z,87.92
2022-09-16T09:11:12.041Z,88.08
2022-09-16T09:14:01.549Z,88.09
2022-09-16T09:17:06.090Z,87.92
2022-09-16T09:20:14.669Z,86.96
2022-09-16T09:23:13.516Z,87.09
2022-09-16T09:26:09.392Z,86.96
2022-09-16T09:28:56.142Z,86.59
2022-09-16T09:32:11.092Z,86.78
2022-09-16T09:35:22.790Z,86.21
2022-09-16T09:38:33.968Z,85.98
2022-09-16T09:41:40.911Z,85.71
2022-09-16T09:44:46.445Z,85.67
2022-09-16T09:47:53.970Z,85.73
2022-09-16T09:51:05.486Z,85.41
2022-09-16T09:54:05.824Z,85.48
2022-09-16T09:57:01.931Z,85.31
2022-09-16T10:00:07.108Z,85.14
2022-09-16T10:03:01.571Z,85.28
2022-09-16T10:05:49.396Z,84.69
2022-09-16T10:08:44.197Z,85.22
2022-09-16T10:11:43.018Z,85.01
2022-09-16T10:14:43.753Z,85.28
2022-09-16T10:17:37.755Z,85.06
2022-09-16T10:20:41.361Z,84.72
2022-09-16T10:23:34.640Z,85.09
2022-09-16T10:26:38.991Z,84.55
2022-09-16T10:29:38.587Z,84.85
2022-09-16T10:32:28.831Z,84.80
2022-09-16T10:35:16.420Z,84.86
2022-09-16T10:38:10.776Z,84.93
2022-09-16T10:40:57.862Z,85.02
2022-09-16T10:43:46.368Z,85.45
2022-09-16T10:46:35.986Z,85.77
2022-09-16T10:49:30.760Z,85.48
2022-09-16T10:52:28.217Z,85.50
2022-09-16T10:55:16.188Z,85.54
2022-09-16T10:58:03.416Z,85.56
2022-09-16T11:00:57.479Z,85.40
2022-09-16T11:04:21.838Z,85.78
2022-09-16T11:07:16.911Z,85.73
2022-09-16T11:10:28.291Z,86.13
2022-09-16T11:13:42.327Z,85.87
2022-09-16T11:16:40.136Z,85.96
2022-09-16T11:20:08.667Z,86.13
2022-09-16T11:23:06.303Z,85.80
2022-09-16T11:26:14.523Z,85.67
2022-09-16T11:29:14.124Z,85.69
2022-09-16T11:32:41.999Z,85.67
2022-09-16T11:35:42.084Z,85.37
2022-09-16T11:39:06.247Z,85.79
2022-09-16T11:42:04.551Z,85.64
2022-09-16T11:45:18.303Z,85.67
2022-09-16T11:48:28.455Z,85.54
2022-09-16T11:51:31.760Z,85.29
2022-09-16T11:54:37.369Z,85.75
2022-09-16T11:57:31.409Z,84.91
2022-09-16T12:00:22.541Z,84.90
2022-09-16T12:03:29.406Z,85.08
2022-09-16T12:06:27.953Z,84.59
2022-09-16T12:09:21.217Z,84.58
2022-09-16T12:12:16.990Z,84.09
2022-09-16T12:15:10.294Z,83.99
2022-09-16T12:18:00.231Z,83.69
2022-09-16T12:20:55.081Z,83.95
2022-09-16T12:23:49.673Z,83.65
2022-09-16T12:26:50.212Z,83.26
2022-09-16T12:29:58.907Z,83.44
2022-09-16T12:32:57.748Z,83.76
2022-09-16T12:35:51.031Z,83.72
2022-09-16T12:38:40.344Z,83.04
2022-09-16T12:41:39.444Z,83.24
2022-09-16T12:44:52.538Z,83.61
2022-09-16T12:48:08.363Z,83.00
2022-09-16T12:51:07.459Z,83.03
2022-09-16T12:53:52.036Z,83.01
2022-09-16T12:57:00.536Z,82.83
2022-09-16T12:59:53.726Z,82.93
2022-09-16T13:02:50.724Z,83.00
2022-09-16T13:05:49.011Z,82.79
2022-09-16T13:09:02.048Z,83.10
2022-09-16T13:15:10.448Z,82.65
2022-09-16T13:18:00.033Z,82.74
2022-09-16T13:20:52.636Z,82.52
2022-09-16T13:23:53.940Z,82.84
2022-09-16T13:26:41.023Z,82.21
2022-09-16T13:29:46.787Z,82.22
2022-09-16T13:32:42.879Z,82.18
2022-09-16T13:35:36.527Z,81.98
2022-09-16T13:38:44.495Z,82.44
2022-09-16T13:41:33.789Z,82.52
2022-09-16T13:44:21.281Z,82.67
2022-09-16T13:47:08.704Z,82.29
2022-09-16T13:50:03.165Z,82.31
2022-09-16T13:52:52.745Z,81.95
2022-09-16T13:55:46.669Z,82.18
2022-09-16T13:58:47.660Z,81.72
2022-09-16T14:01:59.362Z,81.58
2022-09-16T14:04:49.869Z,82.17
2022-09-16T14:08:27.019Z,81.78
2022-09-16T14:11:27.940Z,81.75
2022-09-16T14:14:47.533Z,81.94
2022-09-16T14:17:44.838Z,82.04
2022-09-16T14:20:38.525Z,81.35
2022-09-16T14:23:37.152Z,81.47
2022-09-16T14:26:38.819Z,81.95
2022-09-16T14:29:25.857Z,81.85
2022-09-16T14:32:14.820Z,81.95
2022-09-16T14:35:01.992Z,81.56
2022-09-16T14:37:51.419Z,81.58
2022-09-16T14:40:42.224Z,81.85
2022-09-16T14:43:35.598Z,81.83
2022-09-16T18:37:32.159Z,85.97
2022-09-16T18:39:59.267Z,86.36
2022-09-16T18:42:26.183Z,86.60
2022-09-16T18:44:53.102Z,86.60
2022-09-16T18:47:20.364Z,86.52
2022-09-16T18:49:47.191Z,86.21
2022-09-16T18:52:14.216Z,86.33
2022-09-16T18:54:41.480Z,86.67
2022-09-16T18:57:09.276Z,86.41
2022-09-16T18:59:37.169Z,86.50
2022-09-16T19:02:05.510Z,86.78
2022-09-16T19:04:38.546Z,86.84
2022-09-16T19:07:08.105Z,86.38
2022-09-16T19:09:38.215Z,86.43
2022-09-16T19:12:07.015Z,86.36
2022-09-16T19:14:34.223Z,86.90
2022-09-16T19:17:01.107Z,86.65
2022-09-16T19:19:28.258Z,86.92
2022-09-16T19:21:55.561Z,86.81
2022-09-16T19:24:24.798Z,86.77
2022-09-16T19:26:54.313Z,86.60
2022-09-16T19:29:22.147Z,86.59
2022-09-16T19:31:54.703Z,87.15
2022-09-16T19:34:22.632Z,86.50
2022-09-16T19:36:49.862Z,86.92
2022-09-16T19:39:17.004Z,87.02
2022-09-16T19:41:45.296Z,86.88
2022-09-16T19:44:14.785Z,86.64
2022-09-16T19:46:47.135Z,86.32
2022-09-16T19:49:19.920Z,87.00
2022-09-16T19:51:48.401Z,86.83
2022-09-16T19:54:16.440Z,86.68
2022-09-16T19:56:48.186Z,87.04
2022-09-16T19:59:17.987Z,86.92
2022-09-16T20:01:45.050Z,87.27
2022-09-16T20:04:12.223Z,86.79
2022-09-16T20:06:41.691Z,86.68
2022-09-16T20:09:14.252Z,87.46
2022-09-16T20:11:44.727Z,87.43
2022-09-16T20:14:16.294Z,87.50
2022-09-16T20:16:43.963Z,86.87
2022-09-16T20:19:13.925Z,87.23
2022-09-16T20:21:41.669Z,87.09
2022-09-16T20:24:14.544Z,87.02
2022-09-16T20:26:41.556Z,87.31
2022-09-16T20:29:08.540Z,87.51
2022-09-16T20:31:36.864Z,87.71
2022-09-16T20:34:04.663Z,87.64
2022-09-16T20:36:35.859Z,87.96
2022-09-16T20:39:04.073Z,88.06
2022-09-16T20:41:33.255Z,88.03
2022-09-16T20:44:00.439Z,87.62
2022-09-16T20:46:33.019Z,87.96
2022-09-16T20:49:01.804Z,87.95
2022-09-16T20:51:33.653Z,88.46
2022-09-16T20:54:07.743Z,87.59
2022-09-16T20:56:38.967Z,88.42
2022-09-16T20:59:08.313Z,88.18
2022-09-16T21:01:37.068Z,87.94
2022-09-16T21:04:06.622Z,88.40
2022-09-16T21:06:35.528Z,88.63
2022-09-16T21:09:05.541Z,88.23
2022-09-16T21:11:33.333Z,88.19
2022-09-16T21:14:04.140Z,88.59
2022-09-16T21:16:34.208Z,88.42
2022-09-16T21:19:04.264Z,87.83
2022-09-16T21:21:32.125Z,87.94
2022-09-16T21:24:01.384Z,87.93
2022-09-16T21:26:31.159Z,88.40
2022-09-16T21:29:01.119Z,87.75
2022-09-16T21:31:33.615Z,88.31
2022-09-16T21:34:03.135Z,87.96
2022-09-16T21:36:31.275Z,87.76
2022-09-16T21:38:59.318Z,88.52
2022-09-16T21:41:26.672Z,87.74
2022-09-16T21:43:55.771Z,87.24
2022-09-16T21:46:27.234Z,88.14
2022-09-16T21:49:01.177Z,88.43
2022-09-16T21:51:35.440Z,88.62
2022-09-16T21:54:07.464Z,88.51
2022-09-16T21:56:38.478Z,88.39
2022-09-16T21:59:26.085Z,88.09
2022-09-16T22:02:13.262Z,87.80
2022-09-16T22:05:00.165Z,87.87
2022-09-16T22:07:47.607Z,88.09
2022-09-16T22:10:34.664Z,88.07
2022-09-16T22:13:21.824Z,88.20
2022-09-16T22:16:12.121Z,87.66
2022-09-16T22:18:59.656Z,88.14
2022-09-16T22:21:49.444Z,87.90
2022-09-16T22:24:37.553Z,87.62
2022-09-16T22:27:24.575Z,87.44
2022-09-16T22:30:11.522Z,87.48
2022-09-16T22:32:58.324Z,88.20
2022-09-16T22:35:45.402Z,87.46
2022-09-16T22:38:32.192Z,87.44
2022-09-16T22:41:23.796Z,88.10
2022-09-16T22:44:12.298Z,87.23
2022-09-16T22:47:04.403Z,87.68
2022-09-16T22:49:51.289Z,87.28
2022-09-16T22:52:38.316Z,87.66
2022-09-16T22:55:26.024Z,87.36
2022-09-16T22:58:13.124Z,87.34
2022-09-16T23:01:00.030Z,87.98
2022-09-16T23:03:47.029Z,88.27
2022-09-16T23:06:35.520Z,87.70
2022-09-16T23:09:23.656Z,87.52
2022-09-16T23:12:10.640Z,87.38
2022-09-16T23:14:57.576Z,87.43
2022-09-16T23:17:44.440Z,87.69
2022-09-16T23:20:31.571Z,87.61
2022-09-16T23:23:18.548Z,86.86
2022-09-16T23:26:05.444Z,87.38
2022-09-16T23:28:52.898Z,88.25
2022-09-16T23:31:42.783Z,88.31
2022-09-16T23:34:38.720Z,87.86
2022-09-16T23:37:25.600Z,88.15
2022-09-16T23:40:12.576Z,88.10
2022-09-16T23:42:59.608Z,87.14
2022-09-16T23:45:46.478Z,87.53
2022-09-16T23:48:33.689Z,88.21
2022-09-16T23:51:23.591Z,88.46
2022-09-16T23:54:14.857Z,87.82
2022-09-16T23:57:01.856Z,88.16
2022-09-16T23:59:48.737Z,88.55
